Terminal Aerodrome Forecast
Issued by NWS

Home | Current Version | Previous Version | Text Only | Print | Product List | Glossary On
Versions: 1 2 3 4 5 6 7 8 9 10 11 12 13 14 15 16 17 18
000
FTUS43 KICT 281501 AAA
TAFSLN
TAF AMD
KSLN 281501Z 2815/2912 21017G26KT P6SM SCT250
     FM282200 21015KT P6SM VCTS SCT080CB
     FM290200 36010KT P6SM VCTS BKN080CB
     FM290700 02010KT P6SM SCT100 BKN250=

USA.gov is the U.S. government's official web portal to all federal, state and local government web resources and services.